Time;durP1;ratioP1;P1;durP2;ratioP2;P2;SDS_P1;SDS_P2;PMS_P1;PMS_P2;Temp;Humidity;BMP_temperature;BMP_pressure;BME280_temperature;BME280_humidity;BME280_pressure;Samples;Min_cycle;Max_cycle;Signal;HPM_P1;HPM_P2
2023/09/04 00:00:53;;;;;;;2.00;1.83;;;14.90;99.90;;;;;;5036941;28;20068;-80
2023/09/04 00:03:19;;;;;;;2.85;2.50;;;14.80;99.90;;;;;;5036437;28;20042;-79
2023/09/04 00:05:45;;;;;;;3.22;2.40;;;14.80;99.90;;;;;;5035443;28;20061;-80
2023/09/04 00:08:11;;;;;;;2.75;2.42;;;14.70;99.90;;;;;;5066919;28;20072;-81
2023/09/04 00:10:37;;;;;;;2.67;2.35;;;14.70;99.90;;;;;;5038379;28;20084;-80
2023/09/04 00:13:03;;;;;;;2.40;2.05;;;14.70;99.90;;;;;;5040213;28;20044;-80
2023/09/04 00:15:28;;;;;;;3.15;2.72;;;14.70;99.90;;;;;;5038204;28;20055;-80
2023/09/04 00:17:55;;;;;;;3.45;3.15;;;14.70;99.90;;;;;;5054098;28;20123;-80
2023/09/04 00:20:21;;;;;;;3.60;3.30;;;14.60;99.90;;;;;;5069903;28;20085;-80
2023/09/04 00:22:46;;;;;;;2.70;2.50;;;14.70;99.90;;;;;;5066215;28;20476;-80
2023/09/04 00:25:12;;;;;;;4.00;3.13;;;14.40;99.90;;;;;;5033082;28;20041;-80
2023/09/04 00:27:38;;;;;;;3.10;2.90;;;14.50;99.90;;;;;;5053685;28;20056;-81
2023/09/04 00:30:03;;;;;;;3.17;2.80;;;14.50;99.90;;;;;;5073209;28;20040;-80
2023/09/04 00:32:29;;;;;;;3.03;2.78;;;14.50;99.90;;;;;;5050263;28;20049;-80
2023/09/04 00:34:55;;;;;;;2.85;2.65;;;14.50;99.90;;;;;;5051180;28;20041;-81
2023/09/04 00:37:20;;;;;;;4.72;2.67;;;14.50;99.90;;;;;;5046033;28;20135;-81
2023/09/04 00:39:46;;;;;;;1.98;1.88;;;14.40;99.90;;;;;;5050010;28;20375;-80
2023/09/04 00:42:15;;;;;;;4.07;2.88;;;14.40;99.90;;;;;;5033638;28;20543;-80
2023/09/04 00:44:43;;;;;;;3.60;2.55;;;14.90;99.90;;;;;;5035580;28;20038;-81
2023/09/04 00:47:11;;;;;;;4.70;2.53;;;14.30;99.90;;;;;;5042074;28;20041;-81
2023/09/04 00:49:37;;;;;;;6.25;2.80;;;14.30;99.90;;;;;;5041168;28;20551;-81
2023/09/04 00:52:05;;;;;;;5.55;2.63;;;14.20;99.90;;;;;;5045039;28;20064;-81
2023/09/04 00:54:31;;;;;;;3.28;2.70;;;14.20;99.90;;;;;;5043215;28;20048;-80
2023/09/04 00:56:57;;;;;;;3.35;3.05;;;14.20;99.90;;;;;;5035297;28;20098;-80
2023/09/04 00:59:24;;;;;;;4.30;2.65;;;14.10;99.90;;;;;;5046645;28;20036;-80
2023/09/04 01:01:49;;;;;;;2.72;2.53;;;14.10;99.90;;;;;;5047347;28;20038;-81
2023/09/04 01:04:15;;;;;;;3.67;2.42;;;14.10;99.90;;;;;;5045966;28;20091;-81
2023/09/04 01:06:40;;;;;;;2.63;2.40;;;14.00;99.90;;;;;;5047794;28;20044;-81
2023/09/04 01:09:08;;;;;;;2.35;2.22;;;14.00;99.90;;;;;;5049202;28;20065;-80
2023/09/04 01:11:59;;;;;;;3.05;2.35;;;14.40;99.90;;;;;;5048858;28;20053;-81
2023/09/04 01:14:28;;;;;;;2.72;2.53;;;14.00;99.90;;;;;;5043126;28;20084;-80
2023/09/04 01:16:54;;;;;;;2.90;2.70;;;14.60;99.90;;;;;;5043511;28;20488;-81
2023/09/04 01:19:20;;;;;;;2.67;2.47;;;14.70;99.90;;;;;;5041740;28;20036;-80
2023/09/04 01:21:45;;;;;;;3.00;2.80;;;13.80;99.90;;;;;;5046351;28;20115;-80
2023/09/04 01:24:11;;;;;;;4.68;3.35;;;13.90;99.90;;;;;;5041197;28;20116;-81
2023/09/04 01:26:55;;;;;;;3.47;3.00;;;14.00;99.90;;;;;;5052155;28;20045;-80
2023/09/04 01:29:30;;;;;;;3.72;2.65;;;13.90;99.90;;;;;;5048903;28;20554;-80
2023/09/04 01:32:25;;;;;;;4.07;3.60;;;13.90;99.90;;;;;;5043412;28;20049;-81
2023/09/04 01:34:51;;;;;;;4.10;3.67;;;13.90;99.90;;;;;;5047302;28;20068;-81
2023/09/04 01:37:19;;;;;;;4.95;3.42;;;14.00;99.90;;;;;;5039963;28;20120;-81
2023/09/04 01:39:45;;;;;;;3.55;3.25;;;14.70;99.90;;;;;;5050730;28;20033;-80
2023/09/04 01:42:11;;;;;;;4.25;3.70;;;13.90;99.90;;;;;;5053639;28;20098;-80
2023/09/04 01:44:37;;;;;;;4.78;3.30;;;15.40;99.90;;;;;;5051730;28;20045;-80
2023/09/04 01:47:03;;;;;;;4.22;3.38;;;14.60;99.90;;;;;;5045107;28;20051;-81
2023/09/04 01:49:29;;;;;;;3.25;3.00;;;13.80;99.90;;;;;;5039821;28;20045;-81
2023/09/04 01:51:58;;;;;;;4.18;3.17;;;13.90;99.90;;;;;;5043455;28;20378;-81
2023/09/04 01:54:23;;;;;;;4.10;3.67;;;15.10;99.90;;;;;;5040529;28;20053;-80
2023/09/04 01:56:49;;;;;;;3.58;2.85;;;13.80;99.90;;;;;;5038251;28;20453;-81
2023/09/04 01:59:15;;;;;;;3.85;3.55;;;13.80;99.90;;;;;;5071988;28;20042;-80
2023/09/04 02:01:40;;;;;;;4.38;3.97;;;13.80;99.90;;;;;;5038589;28;20048;-80
2023/09/04 02:04:06;;;;;;;5.13;4.15;;;13.80;99.90;;;;;;5041454;28;20047;-80
2023/09/04 02:06:32;;;;;;;5.18;3.80;;;14.40;99.90;;;;;;5040538;28;20075;-80
2023/09/04 02:08:57;;;;;;;4.70;3.70;;;13.70;99.90;;;;;;5037322;28;20124;-80
2023/09/04 02:11:23;;;;;;;4.80;3.22;;;14.10;99.90;;;;;;5040246;28;20041;-80
2023/09/04 02:13:49;;;;;;;4.68;3.35;;;13.60;99.90;;;;;;5037859;28;20037;-80
2023/09/04 02:16:15;;;;;;;3.33;3.13;;;14.00;99.90;;;;;;5041535;28;20091;-80
2023/09/04 02:18:41;;;;;;;3.60;3.30;;;13.60;99.90;;;;;;5045385;28;20498;-80
2023/09/04 02:21:07;;;;;;;3.92;3.00;;;14.60;99.90;;;;;;5038209;28;20065;-81
2023/09/04 02:23:33;;;;;;;3.22;3.03;;;14.50;99.90;;;;;;5045440;28;20033;-81
2023/09/04 02:25:59;;;;;;;2.70;2.50;;;13.60;99.90;;;;;;5053070;28;20044;-80
2023/09/04 02:28:24;;;;;;;3.00;2.78;;;13.50;99.90;;;;;;5059633;28;20045;-80
2023/09/04 02:30:50;;;;;;;3.63;3.33;;;13.50;99.90;;;;;;5040408;28;20056;-81
2023/09/04 02:33:16;;;;;;;3.35;2.75;;;13.50;99.90;;;;;;5042498;28;20037;-80
2023/09/04 02:35:43;;;;;;;3.78;3.08;;;13.50;99.90;;;;;;5046923;28;20493;-80
2023/09/04 02:38:08;;;;;;;4.20;2.90;;;13.60;99.90;;;;;;5048731;28;20450;-80
2023/09/04 02:40:34;;;;;;;3.38;2.63;;;13.50;99.90;;;;;;5042243;28;20533;-80
2023/09/04 02:43:00;;;;;;;4.70;3.45;;;14.00;99.90;;;;;;5047162;28;20323;-80
2023/09/04 02:45:25;;;;;;;3.47;3.20;;;13.60;99.90;;;;;;5049476;28;20037;-80
2023/09/04 02:47:51;;;;;;;2.97;2.78;;;13.60;99.90;;;;;;5042569;28;20056;-80
2023/09/04 02:50:17;;;;;;;3.15;2.80;;;13.50;99.90;;;;;;5039773;28;20037;-81
2023/09/04 02:52:43;;;;;;;3.15;2.95;;;13.50;99.90;;;;;;5037199;28;20037;-80
2023/09/04 02:55:09;;;;;;;3.58;3.38;;;13.50;99.90;;;;;;5058318;28;20116;-80
2023/09/04 02:57:35;;;;;;;3.08;2.80;;;13.50;99.90;;;;;;5048898;28;20120;-81
2023/09/04 03:00:03;;;;;;;3.33;3.08;;;13.50;99.90;;;;;;5049026;28;20033;-80
2023/09/04 03:02:29;;;;;;;3.83;3.20;;;13.50;99.90;;;;;;5050091;28;20045;-81
2023/09/04 03:04:55;;;;;;;2.90;2.70;;;13.50;99.90;;;;;;5048088;28;20051;-80
2023/09/04 03:07:27;;;;;;;3.30;2.80;;;13.50;99.90;;;;;;5047740;28;20048;-81
2023/09/04 03:09:55;;;;;;;3.33;3.03;;;13.40;99.90;;;;;;5045056;28;20037;-81
2023/09/04 03:12:24;;;;;;;4.85;2.80;;;13.40;99.90;;;;;;5050387;28;20045;-80
2023/09/04 03:14:56;;;;;;;2.65;2.55;;;13.40;99.90;;;;;;5049716;28;20801;-79
2023/09/04 03:17:23;;;;;;;5.15;3.53;;;13.40;99.90;;;;;;5043378;28;20057;-81
2023/09/04 03:19:49;;;;;;;3.58;3.28;;;13.40;99.90;;;;;;5047338;28;20048;-81
2023/09/04 03:22:15;;;;;;;3.92;3.08;;;13.30;99.90;;;;;;5050510;28;20191;-80
2023/09/04 03:24:41;;;;;;;3.20;3.00;;;13.30;99.90;;;;;;5041906;28;20123;-80
2023/09/04 03:27:06;;;;;;;3.58;3.33;;;13.30;99.90;;;;;;5043850;28;20049;-81
2023/09/04 03:29:32;;;;;;;2.83;2.72;;;13.30;99.90;;;;;;5040711;28;20110;-80
2023/09/04 03:31:57;;;;;;;4.10;3.00;;;13.30;99.90;;;;;;5047412;28;20045;-80
2023/09/04 03:34:23;;;;;;;3.00;2.80;;;13.30;99.90;;;;;;5042708;28;20021;-81
2023/09/04 03:36:49;;;;;;;2.90;2.70;;;13.30;99.90;;;;;;5049057;28;20500;-80
2023/09/04 03:39:14;;;;;;;9.70;3.28;;;13.30;99.90;;;;;;5045701;28;20112;-80
2023/09/04 03:41:40;;;;;;;3.70;3.33;;;13.30;99.90;;;;;;5047477;28;20115;-80
2023/09/04 03:44:06;;;;;;;3.42;3.13;;;13.30;99.90;;;;;;5045780;28;20128;-79
2023/09/04 03:46:32;;;;;;;3.22;3.03;;;13.20;99.90;;;;;;5047482;28;20041;-80
2023/09/04 03:48:57;;;;;;;3.20;3.00;;;13.80;99.90;;;;;;5048762;28;20056;-81
2023/09/04 03:51:23;;;;;;;3.25;3.05;;;14.20;99.90;;;;;;5060172;28;20042;-80
2023/09/04 03:53:49;;;;;;;3.67;3.35;;;13.20;99.90;;;;;;5040279;28;20151;-81
2023/09/04 03:56:14;;;;;;;4.05;3.65;;;13.20;99.90;;;;;;5043754;28;20051;-79
2023/09/04 03:58:40;;;;;;;4.10;3.70;;;14.50;99.90;;;;;;5040515;28;20032;-80
2023/09/04 04:01:05;;;;;;;3.33;3.13;;;13.70;99.90;;;;;;5047542;28;20126;-80
2023/09/04 04:03:31;;;;;;;2.95;2.75;;;13.40;99.90;;;;;;5042649;28;20048;-80
2023/09/04 04:05:57;;;;;;;3.85;3.10;;;13.00;99.90;;;;;;5043331;28;20041;-80
2023/09/04 04:08:22;;;;;;;3.15;2.85;;;13.00;99.90;;;;;;5040725;28;20045;-80
2023/09/04 04:10:48;;;;;;;3.80;3.50;;;13.00;99.90;;;;;;5040732;28;20542;-80
2023/09/04 04:13:13;;;;;;;3.78;3.30;;;13.00;99.90;;;;;;5042058;28;20469;-80
2023/09/04 04:15:39;;;;;;;3.30;3.08;;;13.00;99.90;;;;;;5046844;28;20095;-81
2023/09/04 04:18:08;;;;;;;3.33;3.03;;;12.90;99.90;;;;;;5043464;28;20088;-80
2023/09/04 04:20:34;;;;;;;3.50;3.20;;;12.90;99.90;;;;;;5049831;28;20057;-80
2023/09/04 04:23:00;;;;;;;3.38;3.08;;;12.80;99.90;;;;;;5049028;28;20221;-80
2023/09/04 04:25:26;;;;;;;4.95;3.75;;;12.80;99.90;;;;;;5046304;28;20566;-80
2023/09/04 04:27:51;;;;;;;3.45;3.15;;;12.80;99.90;;;;;;5046024;28;20048;-80
2023/09/04 04:30:17;;;;;;;3.55;3.00;;;13.80;99.90;;;;;;5045970;28;20040;-80
2023/09/04 04:32:43;;;;;;;2.95;2.63;;;12.80;99.90;;;;;;5040867;28;20041;-80
2023/09/04 04:35:08;;;;;;;3.08;2.88;;;12.80;99.90;;;;;;5051597;28;20550;-81
2023/09/04 04:37:34;;;;;;;3.40;3.20;;;13.40;99.90;;;;;;5046120;28;20044;-80
2023/09/04 04:40:00;;;;;;;3.72;3.33;;;12.70;99.90;;;;;;5046680;28;20075;-80
2023/09/04 04:42:26;;;;;;;5.32;2.92;;;12.70;99.90;;;;;;5047302;28;20488;-80
2023/09/04 04:44:54;;;;;;;6.10;3.45;;;11.40;99.90;;;;;;5052710;28;20045;-80
2023/09/04 04:47:20;;;;;;;3.75;3.13;;;12.70;99.90;;;;;;5051444;28;20041;-80
2023/09/04 04:49:46;;;;;;;3.63;2.72;;;12.70;99.90;;;;;;5040345;28;20138;-80
2023/09/04 04:52:11;;;;;;;3.03;2.83;;;12.60;99.90;;;;;;5039871;28;20416;-79
2023/09/04 04:54:37;;;;;;;3.78;3.47;;;12.60;99.90;;;;;;5047955;28;20037;-80
2023/09/04 04:57:03;;;;;;;3.70;3.47;;;12.60;99.90;;;;;;5052581;28;20555;-80
2023/09/04 04:59:29;;;;;;;2.80;2.60;;;12.60;99.90;;;;;;5057332;28;20107;-80
2023/09/04 05:01:56;;;;;;;3.08;2.88;;;12.60;99.90;;;;;;5052703;28;20481;-81
2023/09/04 05:04:25;;;;;;;3.05;2.85;;;12.50;99.90;;;;;;5053754;28;20119;-81
2023/09/04 05:06:50;;;;;;;2.95;2.75;;;12.60;99.90;;;;;;5043721;28;20178;-80
2023/09/04 05:09:16;;;;;;;5.47;3.13;;;12.60;99.90;;;;;;5052200;28;20128;-80
2023/09/04 05:11:41;;;;;;;3.25;2.95;;;12.60;99.90;;;;;;5052432;28;20052;-80
2023/09/04 05:14:07;;;;;;;3.20;2.90;;;13.80;99.90;;;;;;5048647;28;20036;-79
2023/09/04 05:16:33;;;;;;;5.07;3.35;;;12.50;99.90;;;;;;5052184;28;20045;-80
2023/09/04 05:18:58;;;;;;;5.20;3.15;;;13.70;99.90;;;;;;5052448;28;20037;-80
2023/09/04 05:21:24;;;;;;;2.80;2.60;;;12.50;99.90;;;;;;5052533;28;20057;-79
2023/09/04 05:23:51;;;;;;;2.95;2.70;;;12.50;99.90;;;;;;5049806;28;20037;-80
2023/09/04 05:26:16;;;;;;;2.60;2.40;;;13.00;99.90;;;;;;5050427;28;20033;-80
2023/09/04 05:28:42;;;;;;;3.45;2.83;;;12.40;99.90;;;;;;5056944;28;20049;-80
2023/09/04 05:31:08;;;;;;;3.30;3.00;;;12.50;99.90;;;;;;5049889;28;20045;-80
2023/09/04 05:33:33;;;;;;;4.00;3.00;;;12.50;99.90;;;;;;5047487;28;20055;-80
2023/09/04 05:36:00;;;;;;;3.13;2.92;;;12.50;99.90;;;;;;5041951;28;20036;-79
2023/09/04 05:38:26;;;;;;;3.35;3.05;;;12.40;99.90;;;;;;5042293;28;20037;-80
2023/09/04 05:40:55;;;;;;;2.90;2.70;;;12.40;99.90;;;;;;5046558;28;20550;-79
2023/09/04 05:43:22;;;;;;;4.35;2.67;;;13.20;99.90;;;;;;5046179;28;20127;-79
2023/09/04 05:45:48;;;;;;;3.10;2.80;;;13.20;99.90;;;;;;5047863;28;20048;-80
2023/09/04 05:48:13;;;;;;;4.70;2.85;;;12.40;99.90;;;;;;5045802;28;20124;-79
2023/09/04 05:50:39;;;;;;;2.55;2.45;;;13.70;99.90;;;;;;5038218;28;20565;-80
2023/09/04 05:53:04;;;;;;;2.90;2.70;;;12.40;99.90;;;;;;5080525;28;20047;-79
2023/09/04 05:55:30;;;;;;;2.95;2.70;;;12.50;99.90;;;;;;5051195;28;20386;-80
2023/09/04 05:57:55;;;;;;;2.83;2.63;;;12.50;99.90;;;;;;5037209;28;20158;-80
2023/09/04 06:00:22;;;;;;;4.70;3.08;;;12.50;99.90;;;;;;5039678;28;20041;-79
2023/09/04 06:02:48;;;;;;;5.45;3.60;;;12.50;99.90;;;;;;5038791;28;20071;-80
2023/09/04 06:05:13;;;;;;;2.95;2.70;;;13.40;99.90;;;;;;5071397;28;20037;-79
2023/09/04 06:07:39;;;;;;;3.33;3.03;;;12.60;99.90;;;;;;5038602;28;20035;-79
2023/09/04 06:10:05;;;;;;;2.78;2.58;;;12.60;99.90;;;;;;5041376;28;20768;-79
2023/09/04 06:12:31;;;;;;;2.67;2.50;;;12.70;99.90;;;;;;5039932;28;20497;-79
2023/09/04 06:14:57;;;;;;;3.90;2.92;;;12.70;99.90;;;;;;5037212;28;20051;-80
2023/09/04 06:17:23;;;;;;;3.35;3.05;;;12.70;99.90;;;;;;5040103;28;20071;-80
2023/09/04 06:19:48;;;;;;;4.00;3.60;;;12.70;99.90;;;;;;5036883;28;20460;-80
2023/09/04 06:22:14;;;;;;;3.88;3.55;;;12.80;99.90;;;;;;5039957;28;20102;-80
2023/09/04 06:24:39;;;;;;;4.55;4.15;;;13.70;99.90;;;;;;5040904;28;20041;-80
2023/09/04 06:27:05;;;;;;;6.82;5.05;;;12.80;99.90;;;;;;5038288;28;20037;-80
2023/09/04 06:29:30;;;;;;;5.82;5.40;;;12.90;99.90;;;;;;5044398;28;20509;-79
2023/09/04 06:31:56;;;;;;;6.03;5.53;;;13.00;99.90;;;;;;5044925;28;20045;-79
2023/09/04 06:34:22;;;;;;;7.57;5.88;;;13.00;99.90;;;;;;5048941;28;20048;-80
2023/09/04 06:36:48;;;;;;;6.35;5.85;;;13.10;99.90;;;;;;5044804;28;20123;-79
2023/09/04 06:39:13;;;;;;;6.90;6.20;;;13.90;99.90;;;;;;5046302;28;20489;-79
2023/09/04 06:41:41;;;;;;;9.00;7.25;;;13.70;99.90;;;;;;5040831;28;20478;-80
2023/09/04 06:44:06;;;;;;;8.05;7.07;;;14.20;99.90;;;;;;5040238;28;20718;-84
2023/09/04 06:46:32;;;;;;;9.20;7.75;;;13.30;99.90;;;;;;5069029;28;20063;-83
2023/09/04 06:48:58;;;;;;;9.10;7.50;;;13.30;99.90;;;;;;5036142;28;20484;-83
2023/09/04 06:51:24;;;;;;;8.85;7.13;;;12.20;99.90;;;;;;4344848;28;10000686;-81
2023/09/04 06:53:49;;;;;;;7.90;7.20;;;14.40;99.90;;;;;;5055183;28;20045;-80
2023/09/04 06:56:15;;;;;;;8.00;7.40;;;13.50;99.90;;;;;;5041052;28;20040;-81
2023/09/04 06:58:41;;;;;;;8.02;7.32;;;14.10;99.90;;;;;;5045770;28;20069;-81
2023/09/04 07:01:06;;;;;;;7.18;6.47;;;14.90;99.90;;;;;;5052605;28;20071;-80
2023/09/04 07:03:33;;;;;;;8.23;7.43;;;13.70;99.90;;;;;;5046109;28;20044;-79
2023/09/04 07:05:59;;;;;;;9.55;6.90;;;14.00;99.90;;;;;;5055812;28;20098;-80
2023/09/04 07:08:24;;;;;;;7.78;7.07;;;13.80;99.90;;;;;;5047944;28;20045;-79
2023/09/04 07:10:52;;;;;;;6.90;6.30;;;13.90;99.90;;;;;;5048926;28;20159;-81
2023/09/04 07:13:20;;;;;;;9.82;7.20;;;14.00;99.90;;;;;;5041078;28;20124;-81
2023/09/04 07:15:46;;;;;;;8.82;6.93;;;14.00;99.90;;;;;;5045251;28;20368;-80
2023/09/04 07:18:12;;;;;;;6.82;6.20;;;14.10;99.90;;;;;;5050734;28;20056;-79
2023/09/04 07:20:37;;;;;;;6.72;6.03;;;14.20;99.90;;;;;;5082067;28;20540;-78
2023/09/04 07:23:04;;;;;;;7.97;6.20;;;14.30;99.90;;;;;;5045427;28;20049;-79
2023/09/04 07:25:34;;;;;;;8.57;6.30;;;14.40;99.90;;;;;;5047683;28;20073;-79
2023/09/04 07:28:00;;;;;;;6.50;5.90;;;14.40;99.90;;;;;;5049363;28;20081;-79
2023/09/04 07:30:25;;;;;;;6.60;5.90;;;14.50;99.90;;;;;;5051468;28;20065;-79
2023/09/04 07:32:51;;;;;;;6.43;5.85;;;14.60;99.90;;;;;;5048578;28;20094;-79
2023/09/04 07:35:16;;;;;;;7.40;6.70;;;14.70;99.90;;;;;;5049412;28;20032;-79
2023/09/04 07:37:42;;;;;;;6.03;5.28;;;14.80;99.90;;;;;;5047882;28;20037;-80
2023/09/04 07:40:08;;;;;;;7.60;5.65;;;14.80;99.90;;;;;;5045146;28;20512;-78
2023/09/04 07:42:34;;;;;;;6.00;5.50;;;14.90;99.90;;;;;;5043197;28;20036;-79
2023/09/04 07:45:00;;;;;;;7.07;5.43;;;15.00;99.90;;;;;;5036934;28;20041;-80
2023/09/04 07:47:25;;;;;;;7.05;5.85;;;16.10;99.90;;;;;;5036972;28;20076;-82
2023/09/04 07:49:52;;;;;;;10.07;6.47;;;15.20;99.90;;;;;;5039264;28;20065;-86
2023/09/04 07:52:18;;;;;;;8.07;5.90;;;15.50;99.90;;;;;;5045586;28;20040;-82
2023/09/04 07:54:44;;;;;;;9.60;6.03;;;16.60;99.90;;;;;;5043862;28;20033;-84
2023/09/04 07:57:10;;;;;;;6.20;5.18;;;15.50;99.90;;;;;;5051138;28;20037;-84
2023/09/04 07:59:37;;;;;;;6.93;4.78;;;15.50;99.90;;;;;;5050208;28;20041;-82
2023/09/04 08:02:03;;;;;;;6.40;5.13;;;15.70;99.90;;;;;;5041073;28;20065;-81
2023/09/04 08:04:29;;;;;;;6.97;4.90;;;15.70;99.90;;;;;;5045515;28;20447;-82
2023/09/04 08:06:56;;;;;;;9.00;5.25;;;16.90;99.90;;;;;;5051875;28;20032;-79
2023/09/04 08:09:22;;;;;;;7.40;4.55;;;15.90;99.90;;;;;;5046943;28;20042;-83
2023/09/04 08:11:48;;;;;;;4.32;4.00;;;16.00;99.90;;;;;;5051149;28;20044;-86
2023/09/04 08:14:13;;;;;;;5.63;4.68;;;16.10;99.90;;;;;;5055741;28;20530;-85
2023/09/04 08:16:39;;;;;;;7.38;4.10;;;16.20;99.90;;;;;;5050900;28;20040;-84
2023/09/04 08:19:04;;;;;;;4.03;3.72;;;16.40;99.90;;;;;;5049687;28;20123;-83
2023/09/04 08:21:31;;;;;;;5.95;4.10;;;16.30;99.90;;;;;;5049420;28;20091;-85
2023/09/04 08:23:57;;;;;;;5.85;4.53;;;16.40;99.90;;;;;;5054844;28;20056;-85
2023/09/04 08:26:22;;;;;;;8.75;5.60;;;16.50;99.90;;;;;;5053697;28;20053;-84
2023/09/04 08:28:48;;;;;;;6.13;4.80;;;16.60;99.90;;;;;;5050349;28;20052;-84
2023/09/04 08:31:13;;;;;;;5.18;4.68;;;16.70;99.90;;;;;;5050221;28;20041;-81
2023/09/04 08:33:39;;;;;;;5.10;4.32;;;16.80;99.90;;;;;;5045047;28;20036;-82
2023/09/04 08:36:05;;;;;;;14.05;6.10;;;16.90;99.90;;;;;;5051916;28;20201;-82
2023/09/04 08:38:31;;;;;;;5.80;4.50;;;17.00;99.90;;;;;;5048031;28;20082;-83
2023/09/04 08:41:00;;;;;;;4.18;3.25;;;17.00;99.90;;;;;;5078661;28;20120;-84
2023/09/04 08:43:30;;;;;;;5.03;3.15;;;17.10;99.90;;;;;;5054474;28;20048;-86
2023/09/04 08:45:59;;;;;;;3.45;3.05;;;17.20;99.90;;;;;;5051063;28;20037;-83
2023/09/04 08:48:28;;;;;;;3.95;2.83;;;17.30;99.90;;;;;;5049324;28;20045;-85
2023/09/04 08:50:55;;;;;;;2.97;2.78;;;17.30;99.90;;;;;;5045983;28;20124;-86
2023/09/04 08:53:21;;;;;;;4.25;2.90;;;17.40;99.90;;;;;;5048429;28;20049;-86
2023/09/04 08:55:47;;;;;;;9.70;4.03;;;17.40;99.90;;;;;;5046969;28;20057;-85
2023/09/04 08:58:14;;;;;;;3.85;2.40;;;17.50;99.90;;;;;;5043387;28;20152;-85
2023/09/04 09:00:40;;;;;;;3.63;2.22;;;17.50;99.90;;;;;;5047000;28;20133;-84
2023/09/04 09:03:06;;;;;;;3.92;1.95;;;17.60;99.90;;;;;;5051377;28;20110;-83
2023/09/04 09:05:33;;;;;;;9.30;2.42;;;17.70;99.90;;;;;;5046004;28;20542;-85
2023/09/04 09:08:00;;;;;;;3.72;1.98;;;17.80;99.90;;;;;;5046259;28;20049;-83
2023/09/04 09:10:26;;;;;;;1.90;1.80;;;17.90;99.90;;;;;;5048659;28;20492;-84
2023/09/04 09:12:51;;;;;;;2.72;1.95;;;18.40;99.90;;;;;;5051952;28;20123;-86
2023/09/04 09:15:18;;;;;;;2.78;2.08;;;18.00;99.90;;;;;;5050225;28;20036;-87
2023/09/04 09:17:53;;;;;;;2.85;2.38;;;18.10;99.90;;;;;;5049132;28;20046;-85
2023/09/04 09:20:35;;;;;;;7.28;2.40;;;18.20;99.90;;;;;;5039269;28;20136;-85
2023/09/04 09:23:05;;;;;;;2.17;1.75;;;18.20;99.90;;;;;;5050136;28;20120;-87
2023/09/04 09:25:32;;;;;;;2.90;1.95;;;18.20;99.90;;;;;;5051943;28;20400;-82
2023/09/04 09:28:00;;;;;;;4.47;1.83;;;18.30;99.90;;;;;;5046518;28;20076;-83
2023/09/04 09:30:32;;;;;;;3.70;1.70;;;18.30;99.90;;;;;;5048721;28;20052;-87
2023/09/04 09:32:58;;;;;;;2.75;1.70;;;18.40;99.90;;;;;;5044588;28;20516;-87
2023/09/04 09:35:23;;;;;;;4.45;1.92;;;18.40;99.90;;;;;;5049234;28;20041;-85
2023/09/04 09:37:53;;;;;;;3.50;1.90;;;18.50;99.90;;;;;;5043858;28;20052;-84
2023/09/04 09:40:20;;;;;;;3.38;2.15;;;18.50;99.90;;;;;;5049694;28;20025;-83
2023/09/04 09:42:45;;;;;;;2.72;1.42;;;18.60;99.90;;;;;;5049557;28;20041;-80
2023/09/04 09:45:12;;;;;;;3.45;1.50;;;18.80;99.90;;;;;;5049632;28;20124;-85
2023/09/04 09:47:38;;;;;;;5.15;1.75;;;18.90;99.90;;;;;;5047441;28;20400;-89
2023/09/04 09:50:05;;;;;;;4.00;2.00;;;18.90;99.90;;;;;;5048934;28;20056;-83
2023/09/04 09:52:30;;;;;;;2.70;1.70;;;19.00;99.90;;;;;;5051247;28;20425;-81
2023/09/04 09:54:56;;;;;;;1.80;1.60;;;19.00;99.90;;;;;;5051700;28;20041;-86
2023/09/04 09:57:24;;;;;;;4.43;1.88;;;19.10;99.90;;;;;;5049557;28;20044;-83
2023/09/04 09:59:50;;;;;;;4.40;2.13;;;19.20;99.90;;;;;;5044428;28;20051;-84
2023/09/04 10:02:21;;;;;;;2.13;1.60;;;19.20;99.90;;;;;;5044795;28;20163;-82
2023/09/04 10:04:48;;;;;;;3.60;2.08;;;19.20;99.90;;;;;;5042618;28;20701;-82
2023/09/04 10:07:17;;;;;;;2.50;1.40;;;19.30;99.90;;;;;;5059544;28;20045;-83
2023/09/04 10:09:51;;;;;;;1.52;1.42;;;19.40;99.90;;;;;;5050913;28;20043;-82
2023/09/04 10:12:26;;;;;;;1.60;1.50;;;19.40;99.90;;;;;;5053712;28;20048;-83
2023/09/04 10:14:56;;;;;;;2.17;1.63;;;19.50;99.90;;;;;;5047524;28;20052;-81
2023/09/04 10:17:32;;;;;;;4.68;1.63;;;19.60;99.90;;;;;;5055601;28;20037;-83
2023/09/04 10:20:03;;;;;;;1.63;1.38;;;19.60;99.90;;;;;;5048421;28;20063;-83
2023/09/04 10:22:42;;;;;;;2.13;1.23;;;19.60;99.90;;;;;;5046342;28;20041;-83
2023/09/04 10:25:11;;;;;;;2.50;1.52;;;19.70;99.90;;;;;;5046602;28;20044;-83
2023/09/04 10:27:41;;;;;;;4.75;1.25;;;19.90;99.90;;;;;;5056689;28;20044;-83
2023/09/04 10:30:12;;;;;;;1.40;1.30;;;19.90;99.90;;;;;;5055654;28;20116;-83
2023/09/04 10:32:38;;;;;;;1.98;1.40;;;20.00;99.90;;;;;;5054183;28;20378;-85
2023/09/04 10:35:05;;;;;;;2.92;1.50;;;20.00;99.90;;;;;;5050604;28;20503;-85
2023/09/04 10:37:31;;;;;;;4.90;1.55;;;20.00;99.90;;;;;;5051352;28;20613;-84
2023/09/04 10:39:58;;;;;;;2.60;1.50;;;20.00;99.90;;;;;;5051470;28;20420;-84
2023/09/04 10:42:27;;;;;;;3.17;1.65;;;20.20;99.90;;;;;;5047346;28;20049;-84
2023/09/04 10:44:53;;;;;;;2.75;1.55;;;20.30;99.90;;;;;;5082338;28;20124;-83
2023/09/04 10:47:20;;;;;;;3.42;1.40;;;20.50;99.90;;;;;;5059287;28;20487;-84
2023/09/04 10:49:47;;;;;;;1.48;1.30;;;20.40;99.90;;;;;;5045766;28;20041;-84
2023/09/04 10:52:14;;;;;;;2.03;1.60;;;20.60;99.90;;;;;;5050803;28;20048;-83
2023/09/04 10:54:41;;;;;;;1.58;1.35;;;20.60;99.90;;;;;;5045917;28;20535;-82
2023/09/04 10:57:11;;;;;;;5.00;1.45;;;20.60;99.90;;;;;;5043579;28;20116;-82
2023/09/04 10:59:55;;;;;;;2.85;1.27;;;20.70;99.90;;;;;;5049277;28;20064;-82
2023/09/04 11:02:29;;;;;;;1.83;1.27;;;20.80;99.90;;;;;;5050800;28;20041;-81
2023/09/04 11:04:55;;;;;;;;;;;20.90;99.90;;;;;;5047414;28;20048;-81
2023/09/04 11:07:20;;;;;;;5.93;1.00;;;21.00;99.90;;;;;;5051041;28;19931;-82
2023/09/04 11:10:14;;;;;;;1.77;1.20;;;21.00;99.90;;;;;;5050839;28;20135;-83
2023/09/04 11:12:43;;;;;;;2.33;1.40;;;21.10;99.90;;;;;;5043968;28;20044;-81
2023/09/04 11:15:15;;;;;;;3.42;1.17;;;21.20;99.90;;;;;;5050902;28;20049;-82
2023/09/04 11:17:48;;;;;;;3.90;1.42;;;21.30;99.90;;;;;;5053940;28;20608;-81
2023/09/04 11:20:15;;;;;;;1.65;1.25;;;21.40;99.90;;;;;;5046155;28;20049;-81
2023/09/04 11:22:48;;;;;;;3.78;1.05;;;21.50;99.90;;;;;;5042508;28;20172;-83
2023/09/04 11:25:15;;;;;;;1.80;0.82;;;21.60;99.90;;;;;;5084221;28;20143;-83
2023/09/04 11:27:46;;;;;;;1.58;1.00;;;21.60;99.90;;;;;;5041168;28;20459;-81
2023/09/04 11:30:12;;;;;;;0.82;0.82;;;21.70;99.90;;;;;;5044773;28;20040;-81
2023/09/04 11:32:39;;;;;;;2.63;1.20;;;21.80;99.90;;;;;;5048176;28;20064;-82
2023/09/04 11:35:09;;;;;;;4.10;1.02;;;21.90;99.90;;;;;;5049372;28;20477;-82
2023/09/04 11:37:35;;;;;;;1.20;1.00;;;22.10;99.90;;;;;;5047350;28;20118;-82
2023/09/04 11:40:01;;;;;;;1.65;1.05;;;22.20;99.90;;;;;;5037820;28;20107;-81
2023/09/04 11:42:27;;;;;;;1.38;1.27;;;22.30;99.90;;;;;;5040368;28;20512;-81
2023/09/04 11:44:54;;;;;;;2.05;1.38;;;22.30;99.90;;;;;;5038539;28;20041;-82
2023/09/04 11:47:22;;;;;;;2.00;1.15;;;22.40;99.90;;;;;;5030088;28;20049;-81
2023/09/04 11:49:48;;;;;;;2.10;1.13;;;22.50;99.90;;;;;;5039035;28;20052;-83
2023/09/04 11:52:16;;;;;;;3.03;1.20;;;22.60;99.90;;;;;;5044704;28;20481;-78
2023/09/04 11:54:43;;;;;;;2.25;1.20;;;22.70;99.90;;;;;;5040390;28;20678;-81
2023/09/04 11:57:09;;;;;;;1.63;1.05;;;22.80;99.90;;;;;;5037303;28;20042;-79
2023/09/04 11:59:36;;;;;;;3.30;0.55;;;22.90;99.90;;;;;;5041202;28;20114;-84
2023/09/04 12:02:03;;;;;;;0.82;0.80;;;22.90;99.90;;;;;;5045158;28;20049;-77
2023/09/04 12:04:33;;;;;;;1.42;0.93;;;22.90;99.90;;;;;;5056970;28;20053;-85
2023/09/04 12:07:03;;;;;;;2.08;1.20;;;23.00;99.90;;;;;;5050365;28;20049;-80
2023/09/04 12:09:29;;;;;;;1.55;0.95;;;23.00;99.90;;;;;;5043181;28;20038;-82
2023/09/04 12:11:55;;;;;;;2.53;1.20;;;23.10;99.90;;;;;;5048965;28;20041;-85
2023/09/04 12:14:21;;;;;;;3.55;0.88;;;23.20;99.90;;;;;;5040856;28;20045;-80
2023/09/04 12:16:47;;;;;;;0.82;0.80;;;23.30;99.90;;;;;;5043362;28;20409;-82
2023/09/04 12:19:17;;;;;;;1.90;0.98;;;23.40;99.90;;;;;;5041523;28;20038;-82
2023/09/04 12:21:43;;;;;;;4.00;0.90;;;23.40;99.90;;;;;;5049344;28;20053;-80
2023/09/04 12:24:14;;;;;;;0.68;0.55;;;23.50;99.90;;;;;;5048776;28;20048;-76
2023/09/04 12:26:40;;;;;;;1.88;1.08;;;23.50;99.90;;;;;;5047068;28;20120;-79
2023/09/04 12:29:10;;;;;;;1.05;0.90;;;23.50;99.90;;;;;;5049190;28;20099;-82
2023/09/04 12:31:37;;;;;;;1.95;1.13;;;23.50;99.90;;;;;;5063844;28;20049;-83
2023/09/04 12:34:04;;;;;;;2.05;0.73;;;23.60;99.90;;;;;;5043076;28;20045;-80
2023/09/04 12:36:34;;;;;;;2.33;0.75;;;23.70;99.90;;;;;;5049101;28;20389;-84
2023/09/04 12:39:00;;;;;;;2.65;1.10;;;23.80;99.90;;;;;;5053736;28;20049;-82
2023/09/04 12:41:26;;;;;;;2.47;0.88;;;23.80;99.90;;;;;;5049600;28;20051;-81
2023/09/04 12:43:52;;;;;;;1.02;0.93;;;23.90;99.90;;;;;;5052774;28;20279;-80
2023/09/04 12:46:18;;;;;;;1.75;0.93;;;23.90;99.90;;;;;;5050593;28;20041;-83